createdAt,value
2022-10-06T00:00:38.706Z,8.18
2022-10-06T00:03:05.324Z,5.57
2022-10-06T00:05:32.180Z,4.88
2022-10-06T00:08:00.285Z,5.70
2022-10-06T00:10:28.444Z,3.85
2022-10-06T00:12:55.245Z,7.90
2022-10-06T00:15:28.069Z,10.70
2022-10-06T00:17:55.562Z,10.45
2022-10-06T00:20:23.525Z,4.63
2022-10-06T00:22:50.205Z,5.85
2022-10-06T00:25:20.149Z,7.72
2022-10-06T00:27:48.895Z,7.75
2022-10-06T00:30:22.110Z,5.18
2022-10-06T00:32:54.598Z,6.50
2022-10-06T00:35:21.940Z,8.38
2022-10-06T00:37:49.060Z,7.18
2022-10-06T00:40:16.721Z,5.75
2022-10-06T00:42:59.831Z,7.85
2022-10-06T00:45:31.638Z,7.07
2022-10-06T00:48:02.606Z,7.72
2022-10-06T00:50:30.718Z,11.45
2022-10-06T00:52:57.875Z,5.25
2022-10-06T00:55:24.632Z,5.82
2022-10-06T00:57:52.898Z,8.73
2022-10-06T01:00:20.729Z,9.50
2022-10-06T01:02:57.138Z,7.43
2022-10-06T01:05:31.233Z,5.28
2022-10-06T01:07:58.796Z,5.75
2022-10-06T01:10:25.397Z,8.85
2022-10-06T01:12:52.223Z,8.38
2022-10-06T01:15:21.077Z,8.25
2022-10-06T01:18:13.332Z,8.48
2022-10-06T01:20:49.360Z,5.57
2022-10-06T01:23:16.823Z,5.55
2022-10-06T01:25:44.771Z,4.63
2022-10-06T01:28:13.214Z,6.90
2022-10-06T01:30:46.351Z,9.55
2022-10-06T01:33:12.995Z,4.63
2022-10-06T01:35:39.662Z,6.60
2022-10-06T01:38:06.272Z,7.28
2022-10-06T01:40:32.906Z,10.82
2022-10-06T01:42:59.498Z,9.05
2022-10-06T01:45:26.113Z,5.57
2022-10-06T01:47:53.084Z,4.25
2022-10-06T01:50:19.886Z,3.95
2022-10-06T01:52:46.457Z,4.80
2022-10-06T01:55:13.595Z,9.07
2022-10-06T01:57:43.890Z,6.70
2022-10-06T02:00:11.921Z,7.13
2022-10-06T02:02:38.497Z,13.13
2022-10-06T02:05:06.161Z,4.55
2022-10-06T02:07:35.550Z,6.18
2022-10-06T02:10:02.519Z,6.82
2022-10-06T02:12:31.785Z,3.42
2022-10-06T02:14:58.720Z,9.63
2022-10-06T02:17:25.344Z,8.88
2022-10-06T02:19:51.948Z,5.90
2022-10-06T02:22:18.550Z,3.60
2022-10-06T02:24:45.160Z,5.40
2022-10-06T02:27:11.827Z,12.02
2022-10-06T02:29:38.423Z,8.02
2022-10-06T02:32:05.792Z,7.97
2022-10-06T02:34:33.108Z,8.50
2022-10-06T02:36:59.749Z,10.80
2022-10-06T02:39:26.291Z,5.13
2022-10-06T02:41:52.913Z,5.78
2022-10-06T02:44:19.479Z,5.93
2022-10-06T02:46:46.143Z,9.15
2022-10-06T02:49:13.395Z,5.20
2022-10-06T02:51:39.982Z,8.00
2022-10-06T02:54:06.603Z,8.13
2022-10-06T02:56:33.209Z,5.75
2022-10-06T02:58:59.804Z,11.30
2022-10-06T03:01:28.727Z,6.45
2022-10-06T03:03:55.948Z,9.15
2022-10-06T03:06:25.173Z,6.07
2022-10-06T03:08:56.973Z,6.60
2022-10-06T03:11:26.040Z,6.00
2022-10-06T03:13:53.217Z,7.65
2022-10-06T03:16:32.094Z,6.85
2022-10-06T03:18:59.951Z,5.38
2022-10-06T03:21:33.248Z,9.02
2022-10-06T03:24:00.778Z,5.95
2022-10-06T03:26:30.577Z,7.95
2022-10-06T03:28:57.635Z,6.43
2022-10-06T03:31:25.623Z,10.52
2022-10-06T03:33:53.097Z,7.60
2022-10-06T03:36:22.499Z,6.68
2022-10-06T03:38:49.122Z,6.07
2022-10-06T03:41:21.159Z,4.50
2022-10-06T03:43:49.492Z,7.40
2022-10-06T03:46:21.803Z,13.27
2022-10-06T03:48:50.126Z,8.00
2022-10-06T03:51:22.098Z,6.28
2022-10-06T03:53:51.004Z,6.47
2022-10-06T03:56:23.624Z,5.60
2022-10-06T03:59:04.097Z,3.35
2022-10-06T04:01:36.649Z,6.00
2022-10-06T04:04:04.424Z,9.68
2022-10-06T04:06:33.592Z,4.93
2022-10-06T04:09:01.029Z,4.22
2022-10-06T04:11:33.102Z,4.60
2022-10-06T04:16:29.910Z,2.85
2022-10-06T04:19:00.315Z,6.20
2022-10-06T04:21:28.240Z,2.55
2022-10-06T04:23:56.535Z,3.22
2022-10-06T04:26:25.329Z,2.30
2022-10-06T04:28:52.004Z,4.15
2022-10-06T04:31:24.684Z,4.55
2022-10-06T04:33:59.633Z,2.15
2022-10-06T04:36:32.243Z,7.75
2022-10-06T04:39:02.861Z,4.88
2022-10-06T04:41:32.259Z,1.50
2022-10-06T04:43:59.660Z,1.58
2022-10-06T04:46:44.529Z,0.90
2022-10-06T04:49:18.647Z,2.67
2022-10-06T04:51:46.301Z,1.95
2022-10-06T04:54:12.928Z,2.10
2022-10-06T04:56:39.513Z,1.67
2022-10-06T04:59:06.092Z,5.10
2022-10-06T05:01:35.612Z,2.65
2022-10-06T05:04:04.481Z,0.60
2022-10-06T05:06:32.831Z,3.05
2022-10-06T05:09:14.900Z,1.23
2022-10-06T05:11:41.689Z,3.15
2022-10-06T05:14:08.347Z,3.15
2022-10-06T05:16:38.085Z,1.23
2022-10-06T05:19:05.641Z,1.25
2022-10-06T05:21:33.392Z,1.05
2022-10-06T05:24:00.521Z,1.23
2022-10-06T05:26:32.178Z,1.60
2022-10-06T05:28:58.923Z,1.50
2022-10-06T05:31:31.743Z,2.95
2022-10-06T05:33:59.968Z,7.47
2022-10-06T05:36:29.790Z,4.35
2022-10-06T05:38:57.402Z,0.38
2022-10-06T05:41:28.964Z,2.33
2022-10-06T05:43:56.117Z,1.85
2022-10-06T05:46:25.433Z,3.28
2022-10-06T05:48:57.537Z,4.53
2022-10-06T05:53:58.964Z,1.73
2022-10-06T05:56:27.889Z,1.50
2022-10-06T05:58:56.163Z,2.85
2022-10-06T06:01:31.455Z,1.70
2022-10-06T06:04:01.277Z,1.98
2022-10-06T06:06:35.860Z,3.22
2022-10-06T06:09:10.145Z,2.55
2022-10-06T06:11:39.520Z,4.28
2022-10-06T06:14:13.912Z,2.80
2022-10-06T06:16:42.180Z,3.80
2022-10-06T06:19:10.357Z,2.53
2022-10-06T06:21:37.644Z,2.75
2022-10-06T06:24:05.038Z,3.83
2022-10-06T06:26:33.820Z,2.15
2022-10-06T06:29:05.272Z,4.13
2022-10-06T06:31:37.411Z,3.25
2022-10-06T06:34:06.685Z,3.58
2022-10-06T06:36:40.948Z,4.13
2022-10-06T06:39:10.330Z,4.50
2022-10-06T06:41:39.903Z,9.32
2022-10-06T06:44:08.417Z,3.20
2022-10-06T06:49:07.793Z,2.15
2022-10-06T06:51:37.393Z,1.88
2022-10-06T06:54:04.999Z,6.88
2022-10-06T06:56:35.162Z,5.32
2022-10-06T06:59:05.749Z,3.70
2022-10-06T07:01:32.400Z,7.90
2022-10-06T07:03:59.403Z,3.83
2022-10-06T07:06:28.797Z,9.02
2022-10-06T07:08:57.679Z,6.03
2022-10-06T07:11:30.637Z,1.98
2022-10-06T07:14:05.207Z,9.10
2022-10-06T07:16:51.061Z,3.30
2022-10-06T07:19:38.080Z,4.32
2022-10-06T07:22:26.416Z,6.13
2022-10-06T07:25:08.831Z,1.98
2022-10-06T07:27:52.860Z,2.53
2022-10-06T07:30:28.760Z,2.13
2022-10-06T07:32:55.833Z,10.90
2022-10-06T07:35:23.612Z,8.18
2022-10-06T07:37:51.558Z,3.70
2022-10-06T07:40:18.587Z,4.65
2022-10-06T07:42:48.946Z,9.95
2022-10-06T07:45:36.547Z,7.47
2022-10-06T07:48:04.146Z,5.93
2022-10-06T07:50:31.058Z,5.68
2022-10-06T07:52:57.773Z,4.15
2022-10-06T07:55:24.397Z,6.78
2022-10-06T07:57:51.367Z,7.57
2022-10-06T08:00:22.396Z,4.60
2022-10-06T08:02:49.784Z,7.53
2022-10-06T08:05:16.470Z,6.50
2022-10-06T08:07:43.077Z,9.38
2022-10-06T08:10:09.915Z,6.70
2022-10-06T08:12:40.778Z,7.25
2022-10-06T08:15:09.258Z,10.10
2022-10-06T08:17:36.846Z,5.88
2022-10-06T08:20:09.451Z,7.43
2022-10-06T08:22:38.886Z,7.03
2022-10-06T08:25:07.836Z,11.70
2022-10-06T08:27:36.195Z,12.27
2022-10-06T08:30:05.968Z,6.45
2022-10-06T08:32:33.393Z,15.48
2022-10-06T08:35:00.124Z,5.00
2022-10-06T08:37:27.355Z,14.95
2022-10-06T08:39:54.827Z,7.63
2022-10-06T08:42:42.498Z,6.95
2022-10-06T08:45:15.420Z,8.27
2022-10-06T08:47:50.956Z,6.90
2022-10-06T08:50:18.137Z,6.85
2022-10-06T08:52:56.023Z,12.32
2022-10-06T08:55:45.255Z,10.10
2022-10-06T08:58:46.214Z,17.98
2022-10-06T09:01:19.630Z,11.10
2022-10-06T09:03:49.000Z,6.53
2022-10-06T09:06:18.613Z,13.45
2022-10-06T09:08:53.720Z,7.07
2022-10-06T09:11:31.650Z,11.18
2022-10-06T09:14:17.335Z,10.43
2022-10-06T09:16:50.390Z,9.55
2022-10-06T09:19:33.897Z,6.18
2022-10-06T09:22:02.445Z,11.68
2022-10-06T09:24:49.523Z,9.38
2022-10-06T09:27:23.967Z,9.75
2022-10-06T09:29:51.634Z,12.02
2022-10-06T09:32:20.802Z,13.43
2022-10-06T09:34:52.887Z,3.75
2022-10-06T09:37:19.561Z,12.30
2022-10-06T09:39:49.580Z,8.60
2022-10-06T09:42:25.367Z,8.27
2022-10-06T09:45:04.999Z,9.45
2022-10-06T09:47:47.622Z,7.68
2022-10-06T09:50:22.123Z,5.97
2022-10-06T09:52:57.952Z,8.02
2022-10-06T09:55:29.575Z,9.85
2022-10-06T09:57:57.462Z,13.82
2022-10-06T10:00:38.620Z,5.50
2022-10-06T10:03:12.364Z,8.00
2022-10-06T10:05:46.997Z,8.77
2022-10-06T10:08:13.525Z,5.68
2022-10-06T10:10:41.080Z,7.93
2022-10-06T10:13:26.461Z,4.82
2022-10-06T10:16:00.688Z,5.93
2022-10-06T10:18:30.389Z,7.90
2022-10-06T10:21:05.191Z,10.98
2022-10-06T10:23:39.291Z,8.20
2022-10-06T10:26:29.060Z,11.68
2022-10-06T10:29:33.472Z,11.95
2022-10-06T10:32:13.030Z,7.97
2022-10-06T10:34:49.980Z,10.73
2022-10-06T10:37:24.358Z,5.57
2022-10-06T10:39:59.238Z,6.45
2022-10-06T10:42:49.953Z,7.03
2022-10-06T10:45:38.001Z,6.07
2022-10-06T10:48:34.155Z,10.30
2022-10-06T10:51:07.098Z,6.78
2022-10-06T10:53:57.006Z,6.65
2022-10-06T10:56:26.433Z,20.45
2022-10-06T10:59:16.489Z,9.68
2022-10-06T11:01:53.552Z,7.20
2022-10-06T11:04:20.577Z,9.55
2022-10-06T11:07:17.835Z,11.63
2022-10-06T11:09:54.030Z,6.80
2022-10-06T11:12:42.675Z,8.40
2022-10-06T11:15:18.606Z,5.55
2022-10-06T11:17:47.367Z,12.32
2022-10-06T11:21:14.634Z,5.97
2022-10-06T11:23:50.891Z,11.13
2022-10-06T11:26:49.491Z,7.78
2022-10-06T11:29:39.429Z,11.93
2022-10-06T11:32:37.398Z,9.18
2022-10-06T11:35:19.687Z,6.38
2022-10-06T11:37:58.449Z,9.70
2022-10-06T11:40:42.259Z,7.10
2022-10-06T11:43:35.852Z,15.32
2022-10-06T11:46:31.247Z,6.95
2022-10-06T11:49:30.344Z,6.20
2022-10-06T11:52:08.188Z,6.60
2022-10-06T11:54:37.659Z,7.22
2022-10-06T11:57:30.365Z,11.95
2022-10-06T12:00:16.281Z,9.35
2022-10-06T12:02:48.635Z,10.20
2022-10-06T12:08:02.756Z,6.05
2022-10-06T12:10:29.313Z,7.90
2022-10-06T12:44:31.592Z,5.28
2022-10-06T12:47:04.035Z,5.25
2022-10-06T12:49:40.396Z,10.70
2022-10-06T12:52:15.757Z,7.22
2022-10-06T12:54:53.661Z,5.75
2022-10-06T12:57:23.499Z,8.00
2022-10-06T12:59:50.360Z,8.60
2022-10-06T13:02:26.914Z,7.28
2022-10-06T13:05:01.698Z,10.63
2022-10-06T13:07:31.256Z,5.95
2022-10-06T13:10:16.059Z,4.63
2022-10-06T13:12:47.529Z,7.78
2022-10-06T13:15:20.650Z,5.82
2022-10-06T13:18:02.731Z,8.23
2022-10-06T13:23:23.699Z,6.88
2022-10-06T13:26:13.218Z,13.55
2022-10-06T13:28:42.893Z,7.63
2022-10-06T13:31:15.366Z,9.52
2022-10-06T13:33:44.388Z,9.38
2022-10-06T13:36:12.498Z,9.35
2022-10-06T13:38:41.288Z,7.55
2022-10-06T13:41:14.041Z,6.97
2022-10-06T13:43:45.771Z,5.85
2022-10-06T13:46:16.898Z,6.55
2022-10-06T13:48:48.662Z,6.70
2022-10-06T13:51:22.115Z,5.32
2022-10-06T13:53:49.407Z,9.13
2022-10-06T13:58:56.220Z,9.65
2022-10-06T14:01:31.089Z,10.82
2022-10-06T14:04:14.945Z,7.85
2022-10-06T14:07:02.145Z,7.93
2022-10-06T14:09:32.925Z,10.00
2022-10-06T14:12:12.675Z,9.93
2022-10-06T14:14:39.633Z,6.85
2022-10-06T14:17:06.964Z,8.05
2022-10-06T14:19:38.905Z,3.90
2022-10-06T14:24:37.545Z,7.68
2022-10-06T14:27:06.887Z,12.65
2022-10-06T14:29:34.377Z,8.38
2022-10-06T14:32:10.412Z,4.82
2022-10-06T14:34:37.019Z,9.30
2022-10-06T14:37:03.769Z,9.48
2022-10-06T14:39:30.499Z,7.22
2022-10-06T14:42:00.213Z,6.28
2022-10-06T14:44:26.907Z,12.02
2022-10-06T14:46:54.651Z,12.50
2022-10-06T14:49:22.152Z,8.18
2022-10-06T14:51:48.795Z,10.82
2022-10-06T14:54:15.588Z,10.27
2022-10-06T14:56:42.517Z,5.70
2022-10-06T14:59:12.575Z,9.23
2022-10-06T15:01:40.628Z,7.28
2022-10-06T15:04:13.199Z,8.32
2022-10-06T15:07:06.585Z,7.78
2022-10-06T15:09:33.257Z,10.82
2022-10-06T15:12:00.293Z,10.43
2022-10-06T15:14:28.494Z,13.68
2022-10-06T15:16:59.056Z,4.35
2022-10-06T15:19:26.276Z,7.65
2022-10-06T15:21:52.953Z,9.35
2022-10-06T15:24:20.027Z,11.50
2022-10-06T15:27:06.249Z,4.97
2022-10-06T15:29:34.858Z,6.53
2022-10-06T15:32:02.730Z,9.02
2022-10-06T15:34:32.342Z,9.13
2022-10-06T15:36:59.614Z,11.25
2022-10-06T15:39:28.918Z,12.35
2022-10-06T15:41:56.217Z,11.75
2022-10-06T15:44:23.430Z,10.30
2022-10-06T15:46:54.831Z,12.05
2022-10-06T15:49:22.650Z,11.77
2022-10-06T15:52:03.270Z,5.30
2022-10-06T15:54:33.896Z,8.85
2022-10-06T15:57:02.617Z,4.82
2022-10-06T15:59:32.832Z,6.75
2022-10-06T16:02:08.449Z,8.02
2022-10-06T16:04:39.382Z,10.63
2022-10-06T16:07:14.505Z,5.30
2022-10-06T16:09:43.988Z,10.20
2022-10-06T16:12:13.028Z,6.32
2022-10-06T16:14:39.837Z,8.50
2022-10-06T16:17:07.277Z,10.00
2022-10-06T16:19:37.048Z,9.35
2022-10-06T16:22:05.783Z,8.05
2022-10-06T16:24:33.138Z,5.68
2022-10-06T16:27:00.245Z,8.65
2022-10-06T16:29:28.268Z,6.07
2022-10-06T16:31:55.835Z,9.93
2022-10-06T16:34:23.193Z,8.50
2022-10-06T16:36:49.848Z,7.53
2022-10-06T16:39:21.617Z,13.77
2022-10-06T16:41:48.925Z,12.70
2022-10-06T16:44:15.603Z,8.65
2022-10-06T16:46:43.994Z,9.45
2022-10-06T16:49:11.145Z,9.48
2022-10-06T16:51:40.183Z,6.70
2022-10-06T16:54:12.455Z,8.45
2022-10-06T16:56:40.462Z,7.28
2022-10-06T16:59:11.767Z,5.03
2022-10-06T17:01:38.466Z,10.57
2022-10-06T17:04:17.835Z,10.77
2022-10-06T17:06:50.143Z,13.40
2022-10-06T17:11:47.498Z,10.60
2022-10-06T17:14:14.871Z,11.30
2022-10-06T17:16:44.055Z,8.25
2022-10-06T17:19:12.528Z,12.65
2022-10-06T17:21:48.784Z,9.43
2022-10-06T17:24:18.211Z,9.40
2022-10-06T17:26:47.462Z,7.45
2022-10-06T17:29:21.216Z,9.00
2022-10-06T17:31:50.807Z,7.72
2022-10-06T17:34:21.891Z,8.07
2022-10-06T17:36:51.564Z,9.63
2022-10-06T17:39:21.536Z,7.32
2022-10-06T17:41:50.275Z,10.02
2022-10-06T17:44:22.923Z,8.48
2022-10-06T17:46:52.925Z,9.60
2022-10-06T17:49:21.593Z,9.57
2022-10-06T17:51:49.275Z,11.95
2022-10-06T17:54:19.802Z,16.27
2022-10-06T17:56:51.642Z,14.73
2022-10-06T17:59:28.604Z,8.77
2022-10-06T18:01:57.059Z,11.15
2022-10-06T18:04:24.921Z,11.93
2022-10-06T18:06:55.980Z,17.33
2022-10-06T18:09:25.829Z,7.03
2022-10-06T18:11:56.794Z,15.85
2022-10-06T18:14:28.735Z,12.52
2022-10-06T18:16:59.311Z,14.80
2022-10-06T18:19:36.003Z,13.18
2022-10-06T18:22:10.774Z,12.52
2022-10-06T18:24:44.019Z,11.60
2022-10-06T18:27:13.832Z,11.80
2022-10-06T18:29:41.364Z,11.43
2022-10-06T18:33:13.059Z,15.13
2022-10-06T18:37:43.150Z,12.93
2022-10-06T18:40:11.254Z,14.40
2022-10-06T18:42:39.297Z,9.80
2022-10-06T18:45:25.920Z,13.77
2022-10-06T18:48:11.050Z,9.57
2022-10-06T18:50:38.500Z,19.50
2022-10-06T18:53:05.820Z,11.60
2022-10-06T18:55:35.786Z,15.20
2022-10-06T18:58:14.788Z,14.73
2022-10-06T19:00:41.438Z,14.38
2022-10-06T19:03:08.114Z,15.35
2022-10-06T19:05:35.237Z,15.18
2022-10-06T19:08:01.847Z,14.25
2022-10-06T19:10:29.813Z,11.90
2022-10-06T19:12:58.324Z,12.60
2022-10-06T19:15:24.912Z,10.70
2022-10-06T19:17:51.507Z,10.70
2022-10-06T19:20:18.686Z,25.13
2022-10-06T19:22:47.567Z,19.30
2022-10-06T19:25:14.792Z,13.00
2022-10-06T19:27:41.649Z,16.85
2022-10-06T19:30:09.494Z,16.33
2022-10-06T19:32:36.287Z,15.70
2022-10-06T19:35:07.667Z,15.68
2022-10-06T19:37:35.990Z,12.35
2022-10-06T19:40:02.826Z,16.52
2022-10-06T19:42:47.731Z,19.70
2022-10-06T19:45:16.084Z,18.25
2022-10-06T19:47:43.099Z,22.70
2022-10-06T19:50:12.434Z,21.40
2022-10-06T19:52:40.477Z,20.13
2022-10-06T19:55:07.527Z,16.27
2022-10-06T19:58:16.071Z,18.20
2022-10-06T20:01:28.023Z,17.65
2022-10-06T20:08:06.847Z,26.33
2022-10-06T20:11:21.665Z,22.25
2022-10-06T20:20:24.685Z,16.13
2022-10-06T20:22:51.336Z,22.77
2022-10-06T20:25:17.955Z,18.40
2022-10-06T20:27:45.355Z,19.42
2022-10-06T20:31:29.459Z,23.23
2022-10-06T20:34:58.856Z,20.67
2022-10-06T20:41:18.682Z,18.83
2022-10-06T20:43:45.579Z,23.02
2022-10-06T20:46:12.312Z,18.90
2022-10-06T20:48:41.052Z,20.50
2022-10-06T20:51:16.476Z,18.77
2022-10-06T20:53:43.169Z,18.85
2022-10-06T20:56:40.322Z,18.48
2022-10-06T20:59:32.272Z,24.70
2022-10-06T21:08:34.674Z,22.50
2022-10-06T21:11:54.817Z,16.95
2022-10-06T21:14:21.422Z,18.48
2022-10-06T21:20:10.210Z,20.00
2022-10-06T21:22:36.744Z,19.10
2022-10-06T21:33:22.864Z,20.23
2022-10-06T21:35:59.877Z,18.05
2022-10-06T21:38:27.208Z,18.15
2022-10-06T21:40:54.608Z,20.08
2022-10-06T21:50:34.490Z,22.00
2022-10-06T21:53:01.179Z,13.50
2022-10-06T21:55:27.839Z,13.60
2022-10-06T21:57:54.421Z,16.40
2022-10-06T22:00:21.034Z,16.48
2022-10-06T22:02:47.824Z,15.07
2022-10-06T22:05:14.530Z,16.08
2022-10-06T22:07:41.579Z,17.23
2022-10-06T22:23:44.454Z,15.43
2022-10-06T22:26:12.698Z,15.18
2022-10-06T22:33:01.000Z,12.75
2022-10-06T22:35:25.504Z,12.80
2022-10-06T22:37:52.127Z,13.18
2022-10-06T22:40:18.917Z,19.05
2022-10-06T22:42:45.526Z,16.80
2022-10-06T22:45:12.520Z,14.52
2022-10-06T22:47:39.086Z,13.20
2022-10-06T22:54:45.029Z,17.92
2022-10-06T22:57:51.121Z,16.17
2022-10-06T23:00:57.581Z,18.73
2022-10-06T23:04:16.038Z,15.65
2022-10-06T23:10:53.499Z,19.63
2022-10-06T23:13:21.186Z,17.80
2022-10-06T23:15:47.997Z,11.48
2022-10-06T23:18:14.853Z,17.08
2022-10-06T23:20:41.547Z,17.58
2022-10-06T23:23:08.180Z,17.05
2022-10-06T23:25:38.539Z,17.90
2022-10-06T23:28:05.419Z,20.85
2022-10-06T23:30:34.974Z,15.13
2022-10-06T23:33:02.119Z,11.57
2022-10-06T23:35:28.861Z,14.43
2022-10-06T23:37:55.459Z,17.45
2022-10-06T23:40:22.110Z,17.65
2022-10-06T23:42:48.701Z,14.98
2022-10-06T23:45:15.322Z,25.70
2022-10-06T23:47:42.209Z,15.60
2022-10-06T23:50:09.331Z,17.98
2022-10-06T23:52:36.001Z,16.33
2022-10-06T23:55:02.592Z,16.90
2022-10-06T23:57:29.171Z,16.90
2022-10-06T23:59:55.762Z,16.23
